Terminal Aerodrome Forecast
Issued by NWS

Home | Current Version | Previous Version | Text Only | Print | Product List | Glossary On
Versions: 1 2 3 4 5 6 7 8 9 10 11 12 13 14 15
000
FTUS41 KBGM 191723
TAFITH
TAF
KITH 191723Z 1918/2018 25010KT P6SM BKN045
     FM200100 29005KT P6SM SCT035 SCT100
      TEMPO 2008/2012 BKN015
     FM201400 31010KT P6SM SCT045=

USA.gov is the U.S. government's official web portal to all federal, state and local government web resources and services.